createdAt,value
2019-04-28T00:02:30.918Z,36.63
2019-04-28T00:05:02.510Z,38.40
2019-04-28T00:07:35.447Z,35.23
2019-04-28T00:10:07.581Z,37.10
2019-04-28T00:12:41.147Z,40.13
2019-04-28T00:15:12.431Z,38.40
2019-04-28T00:17:43.980Z,33.67
2019-04-28T00:20:21.384Z,32.67
2019-04-28T00:23:01.720Z,40.33
2019-04-28T00:25:38.941Z,36.67
2019-04-28T00:28:11.543Z,37.63
2019-04-28T00:30:44.317Z,37.57
2019-04-28T00:33:16.995Z,35.10
2019-04-28T00:35:48.577Z,33.07
2019-04-28T00:38:21.589Z,32.67
2019-04-28T00:40:54.271Z,31.20
2019-04-28T00:43:26.790Z,35.27
2019-04-28T00:45:58.457Z,34.57
2019-04-28T00:48:30.905Z,32.63
2019-04-28T00:51:02.580Z,29.80
2019-04-28T00:53:34.132Z,32.57
2019-04-28T00:56:05.726Z,32.93
2019-04-28T00:58:37.296Z,32.53
2019-04-28T01:01:11.794Z,36.50
2019-04-28T01:03:43.258Z,43.63
2019-04-28T01:06:14.842Z,39.53
2019-04-28T01:08:46.392Z,36.83
2019-04-28T01:11:17.956Z,35.73
2019-04-28T01:13:51.610Z,36.70
2019-04-28T01:16:37.193Z,31.53
2019-04-28T01:19:18.013Z,36.40
2019-04-28T01:22:07.407Z,32.27
2019-04-28T01:24:39.879Z,30.37
2019-04-28T01:27:42.406Z,28.17
2019-04-28T01:30:21.646Z,28.90
2019-04-28T01:32:59.689Z,27.13
2019-04-28T01:35:31.398Z,25.57
2019-04-28T01:38:02.861Z,33.77
2019-04-28T01:40:34.457Z,30.40
2019-04-28T01:43:06.102Z,29.97
2019-04-28T01:45:37.732Z,29.90
2019-04-28T01:48:10.124Z,34.27
2019-04-28T01:50:41.730Z,37.30
2019-04-28T01:53:13.299Z,32.80
2019-04-28T01:55:44.837Z,32.23
2019-04-28T01:58:16.382Z,25.03
2019-04-28T02:00:47.921Z,26.97
2019-04-28T02:03:20.587Z,24.80
2019-04-28T02:05:52.329Z,24.03
2019-04-28T02:08:23.847Z,25.23
2019-04-28T02:10:55.505Z,31.70
2019-04-28T02:13:27.133Z,25.00
2019-04-28T02:16:00.022Z,24.37
2019-04-28T02:18:31.765Z,23.97
2019-04-28T02:21:12.021Z,26.57
2019-04-28T02:23:43.522Z,31.67
2019-04-28T02:26:14.989Z,25.70
2019-04-28T02:28:46.632Z,26.27
2019-04-28T02:31:18.086Z,19.07
2019-04-28T02:33:50.498Z,20.63
2019-04-28T02:36:22.845Z,18.47
2019-04-28T02:38:54.467Z,19.70
2019-04-28T02:41:25.984Z,18.47
2019-04-28T02:43:57.452Z,17.07
2019-04-28T02:46:30.796Z,20.37
2019-04-28T02:49:03.017Z,19.53
2019-04-28T02:51:40.850Z,20.33
2019-04-28T02:54:12.478Z,19.00
2019-04-28T02:56:44.027Z,18.33
2019-04-28T02:59:15.508Z,17.03
2019-04-28T03:01:47.147Z,18.07
2019-04-28T03:04:20.250Z,20.70
2019-04-28T03:06:52.065Z,20.80
2019-04-28T03:09:23.675Z,18.67
2019-04-28T03:11:55.358Z,21.30
2019-04-28T03:14:26.861Z,18.20
2019-04-28T03:17:00.845Z,18.43
2019-04-28T03:19:34.141Z,16.80
2019-04-28T03:22:05.790Z,18.37
2019-04-28T03:24:41.305Z,18.60
2019-04-28T03:27:31.976Z,20.57
2019-04-28T03:30:13.283Z,22.53
2019-04-28T03:32:59.084Z,19.77
2019-04-28T03:35:22.923Z,17.47
2019-04-28T03:37:54.460Z,18.93
2019-04-28T03:40:25.894Z,19.33
2019-04-28T03:43:00.335Z,17.87
2019-04-28T03:45:36.563Z,18.40
2019-04-28T03:48:08.078Z,17.87
2019-04-28T03:50:41.363Z,16.83
2019-04-28T03:53:12.751Z,15.43
2019-04-28T03:55:45.807Z,20.47
2019-04-28T03:58:17.456Z,14.83
2019-04-28T04:00:50.638Z,16.27
2019-04-28T04:03:22.197Z,14.17
2019-04-28T04:05:53.675Z,14.70
2019-04-28T04:08:25.173Z,20.33
2019-04-28T04:11:14.551Z,14.77
2019-04-28T04:13:51.456Z,13.40
2019-04-28T04:16:50.297Z,13.10
2019-04-28T04:19:21.479Z,12.03
2019-04-28T04:21:53.140Z,9.27
2019-04-28T04:24:24.740Z,9.67
2019-04-28T04:26:56.195Z,10.53
2019-04-28T04:29:27.702Z,9.87
2019-04-28T04:32:13.480Z,10.63
2019-04-28T04:34:32.344Z,9.37
2019-04-28T04:37:03.905Z,8.87
2019-04-28T04:39:35.622Z,8.50
2019-04-28T04:42:07.200Z,9.73
2019-04-28T04:44:41.386Z,9.13
2019-04-28T04:47:12.088Z,7.93
2019-04-28T04:49:43.574Z,8.13
2019-04-28T04:52:15.038Z,8.67
2019-04-28T04:54:46.534Z,7.50
2019-04-28T04:57:18.091Z,6.57
2019-04-28T04:59:50.133Z,6.50
2019-04-28T05:02:47.728Z,6.23
2019-04-28T05:05:18.195Z,6.87
2019-04-28T05:07:50.763Z,5.23
2019-04-28T05:10:22.405Z,5.80
2019-04-28T05:12:53.996Z,6.97
2019-04-28T05:15:25.499Z,7.10
2019-04-28T05:17:57.107Z,6.40
2019-04-28T05:20:30.259Z,5.60
2019-04-28T05:23:24.623Z,7.33
2019-04-28T05:25:56.274Z,5.93
2019-04-28T05:28:30.645Z,5.73
2019-04-28T05:31:00.983Z,5.77
2019-04-28T05:33:34.012Z,6.83
2019-04-28T05:36:05.975Z,5.47
2019-04-28T05:38:37.545Z,6.10
2019-04-28T05:41:10.514Z,7.93
2019-04-28T05:43:42.191Z,5.83
2019-04-28T05:46:13.869Z,5.27
2019-04-28T05:49:02.695Z,4.67
2019-04-28T05:51:35.392Z,6.33
2019-04-28T05:54:32.178Z,4.90
2019-04-28T05:57:21.117Z,5.13
2019-04-28T06:00:13.123Z,4.50
2019-04-28T06:02:55.593Z,4.80
2019-04-28T06:05:20.059Z,4.27
2019-04-28T06:08:20.224Z,8.97
2019-04-28T06:10:51.665Z,5.80
2019-04-28T06:13:23.158Z,4.23
2019-04-28T06:15:54.760Z,4.40
2019-04-28T06:18:26.246Z,4.47
2019-04-28T06:20:57.770Z,5.03
2019-04-28T06:23:29.272Z,5.93
2019-04-28T06:26:00.824Z,5.57
2019-04-28T06:28:32.458Z,5.67
2019-04-28T06:31:03.977Z,4.73
2019-04-28T06:33:35.642Z,4.53
2019-04-28T06:36:07.212Z,5.17
2019-04-28T06:38:38.770Z,5.33
2019-04-28T06:41:10.546Z,6.80
2019-04-28T06:43:43.592Z,5.23
2019-04-28T06:46:16.150Z,4.80
2019-04-28T06:48:47.687Z,4.90
2019-04-28T06:51:19.186Z,4.43
2019-04-28T06:53:50.636Z,4.73
2019-04-28T06:56:22.202Z,5.67
2019-04-28T06:58:59.088Z,4.50
2019-04-28T07:01:26.917Z,4.70
2019-04-28T07:03:58.414Z,4.70
2019-04-28T07:06:29.918Z,4.43
2019-04-28T07:09:01.404Z,4.60
2019-04-28T07:11:34.498Z,5.57
2019-04-28T07:14:06.253Z,4.10
2019-04-28T07:16:37.738Z,5.03
2019-04-28T07:19:09.565Z,4.47
2019-04-28T07:21:47.057Z,4.50
2019-04-28T07:24:18.693Z,4.23
2019-04-28T07:26:50.216Z,4.67
2019-04-28T07:29:21.735Z,5.70
2019-04-28T07:31:53.265Z,5.23
2019-04-28T07:34:24.800Z,4.90
2019-04-28T07:36:56.301Z,4.60
2019-04-28T07:39:27.880Z,4.90
2019-04-28T07:41:59.374Z,5.13
2019-04-28T07:44:30.866Z,6.10
2019-04-28T07:47:02.326Z,4.80
2019-04-28T07:49:35.012Z,5.27
2019-04-28T07:52:18.858Z,7.83
2019-04-28T07:54:50.416Z,5.40
2019-04-28T07:57:24.073Z,6.13
2019-04-28T07:59:55.171Z,6.33
2019-04-28T08:02:26.700Z,8.60
2019-04-28T08:04:58.332Z,6.17
2019-04-28T08:07:29.848Z,7.07
2019-04-28T08:10:01.385Z,5.60
2019-04-28T08:12:32.921Z,5.33
2019-04-28T08:15:13.674Z,6.10
2019-04-28T08:17:45.274Z,7.93
2019-04-28T08:20:16.972Z,7.63
2019-04-28T08:22:48.623Z,9.63
2019-04-28T08:25:22.559Z,6.67
2019-04-28T08:27:53.337Z,6.63
2019-04-28T08:30:24.913Z,6.70
2019-04-28T08:33:04.080Z,8.33
2019-04-28T08:35:36.945Z,7.20
2019-04-28T08:38:13.492Z,11.07
2019-04-28T08:40:45.074Z,11.87
2019-04-28T08:43:16.548Z,8.67
2019-04-28T08:45:48.135Z,7.43
2019-04-28T08:48:25.039Z,7.63
2019-04-28T08:50:56.544Z,7.17
2019-04-28T08:53:29.318Z,7.90
2019-04-28T08:56:01.045Z,6.53
2019-04-28T08:58:32.643Z,7.37
2019-04-28T09:01:04.114Z,9.13
2019-04-28T09:03:35.831Z,8.63
2019-04-28T09:06:07.371Z,10.43
2019-04-28T09:08:38.993Z,7.57
2019-04-28T09:11:10.738Z,6.77
2019-04-28T09:13:43.767Z,6.47
2019-04-28T09:16:15.541Z,8.73
2019-04-28T09:18:47.214Z,8.07
2019-04-28T09:21:19.064Z,8.00
2019-04-28T09:23:50.667Z,9.17
2019-04-28T09:26:22.150Z,8.87
2019-04-28T09:28:53.655Z,6.80
2019-04-28T09:31:25.817Z,7.03
2019-04-28T09:33:57.395Z,8.90
2019-04-28T09:36:28.903Z,8.37
2019-04-28T09:39:02.010Z,7.83
2019-04-28T09:41:39.030Z,9.03
2019-04-28T09:44:19.887Z,7.70
2019-04-28T09:46:51.590Z,6.53
2019-04-28T09:49:23.185Z,7.17
2019-04-28T09:51:54.716Z,7.87
2019-04-28T09:54:26.213Z,8.70
2019-04-28T09:56:57.780Z,9.50
2019-04-28T09:59:29.306Z,7.23
2019-04-28T10:02:00.867Z,6.93
2019-04-28T10:04:41.378Z,8.53
2019-04-28T10:07:05.560Z,7.10
2019-04-28T10:09:37.162Z,7.67
2019-04-28T10:12:08.799Z,6.30
2019-04-28T10:14:40.525Z,7.10
2019-04-28T10:17:12.403Z,7.73
2019-04-28T10:19:43.967Z,5.50
2019-04-28T10:22:15.503Z,5.83
2019-04-28T10:24:47.526Z,7.57
2019-04-28T10:27:19.072Z,5.70
2019-04-28T10:29:50.644Z,6.60
2019-04-28T10:32:23.775Z,5.50
2019-04-28T10:34:58.145Z,5.93
2019-04-28T10:37:29.816Z,7.07
2019-04-28T10:40:09.479Z,8.37
2019-04-28T10:42:41.211Z,4.97
2019-04-28T10:45:16.361Z,6.27
2019-04-28T10:47:48.174Z,6.67
2019-04-28T10:50:19.916Z,7.30
2019-04-28T10:52:52.028Z,6.97
2019-04-28T10:55:24.151Z,6.60
2019-04-28T10:57:55.672Z,7.30
2019-04-28T11:00:29.349Z,6.33
2019-04-28T11:03:00.855Z,6.20
2019-04-28T11:05:38.513Z,9.13
2019-04-28T11:08:17.819Z,5.47
2019-04-28T11:10:49.395Z,7.20
2019-04-28T11:13:21.157Z,4.43
2019-04-28T11:15:52.659Z,6.63
2019-04-28T11:18:24.335Z,5.37
2019-04-28T11:20:55.817Z,6.80
2019-04-28T11:23:27.526Z,7.47
2019-04-28T11:25:59.077Z,5.73
2019-04-28T11:28:30.609Z,7.00
2019-04-28T11:31:02.108Z,5.27
2019-04-28T11:33:59.927Z,5.30
2019-04-28T11:36:31.717Z,5.83
2019-04-28T11:39:04.801Z,5.00
2019-04-28T11:41:37.967Z,5.03
2019-04-28T11:44:09.515Z,5.47
2019-04-28T11:46:41.014Z,5.83
2019-04-28T11:49:13.294Z,5.30
2019-04-28T11:51:44.801Z,6.97
2019-04-28T11:54:18.543Z,5.73
2019-04-28T11:56:50.099Z,5.20
2019-04-28T11:59:21.617Z,6.57
2019-04-28T12:01:53.242Z,6.27
2019-04-28T12:04:24.832Z,6.20
2019-04-28T12:06:56.436Z,7.00
2019-04-28T12:09:42.121Z,5.47
2019-04-28T12:12:41.391Z,7.30
2019-04-28T12:15:38.283Z,5.43
2019-04-28T12:18:27.733Z,6.27
2019-04-28T12:20:59.133Z,5.43
2019-04-28T12:23:30.671Z,6.00
2019-04-28T12:26:02.175Z,5.77
2019-04-28T12:28:33.773Z,6.10
2019-04-28T12:31:05.445Z,8.40
2019-04-28T12:33:37.017Z,5.87
2019-04-28T12:36:10.099Z,6.40
2019-04-28T12:38:41.705Z,5.43
2019-04-28T12:41:13.363Z,5.00
2019-04-28T12:43:46.014Z,5.40
2019-04-28T12:46:17.594Z,6.23
2019-04-28T12:48:52.763Z,6.30
2019-04-28T12:51:24.235Z,4.90
2019-04-28T12:53:59.766Z,7.03
2019-04-28T12:56:34.760Z,5.73
2019-04-28T12:59:13.451Z,5.87
2019-04-28T13:01:52.103Z,4.90
2019-04-28T13:04:37.453Z,5.37
2019-04-28T13:07:12.279Z,7.07
2019-04-28T13:09:43.815Z,6.43
2019-04-28T13:12:15.345Z,5.77
2019-04-28T13:14:46.886Z,5.13
2019-04-28T13:17:18.404Z,5.27
2019-04-28T13:19:49.846Z,5.50
2019-04-28T13:22:21.420Z,5.60
2019-04-28T13:24:53.006Z,6.53
2019-04-28T13:27:24.479Z,5.40
2019-04-28T13:29:56.067Z,4.53
2019-04-28T13:32:27.581Z,6.10
2019-04-28T13:34:59.092Z,5.63
2019-04-28T13:37:30.587Z,5.93
2019-04-28T13:40:06.093Z,5.73
2019-04-28T13:42:37.634Z,6.23
2019-04-28T13:45:18.725Z,5.60
2019-04-28T13:47:50.372Z,6.97
2019-04-28T13:50:32.862Z,5.87
2019-04-28T13:53:04.740Z,4.80
2019-04-28T13:56:04.839Z,5.37
2019-04-28T13:58:41.540Z,4.57
2019-04-28T14:01:30.920Z,6.00
2019-04-28T14:04:24.478Z,4.73
2019-04-28T14:06:59.439Z,6.33
2019-04-28T14:09:30.946Z,6.43
2019-04-28T14:12:02.416Z,5.50
2019-04-28T14:14:34.018Z,5.47
2019-04-28T14:17:05.762Z,5.90
2019-04-28T14:19:37.404Z,7.63
2019-04-28T14:22:09.188Z,7.87
2019-04-28T14:24:40.739Z,4.63
2019-04-28T14:27:12.393Z,4.90
2019-04-28T14:29:43.898Z,4.50
2019-04-28T14:32:15.361Z,5.80
2019-04-28T14:34:47.031Z,5.30
2019-04-28T14:37:20.097Z,5.13
2019-04-28T14:39:51.594Z,5.70
2019-04-28T14:42:23.185Z,5.37
2019-04-28T14:44:54.680Z,5.27
2019-04-28T14:47:29.366Z,4.77
2019-04-28T14:50:03.040Z,5.00
2019-04-28T14:52:35.607Z,4.00
2019-04-28T14:55:07.749Z,4.83
2019-04-28T14:57:39.353Z,4.97
2019-04-28T15:00:13.262Z,5.10
2019-04-28T15:03:01.953Z,4.90
2019-04-28T15:05:55.728Z,5.50
2019-04-28T15:08:46.249Z,7.47
2019-04-28T15:11:42.940Z,6.67
2019-04-28T15:14:14.523Z,6.93
2019-04-28T15:16:46.091Z,5.87
2019-04-28T15:19:17.678Z,5.53
2019-04-28T15:21:54.669Z,4.87
2019-04-28T15:24:26.297Z,5.07
2019-04-28T15:26:57.873Z,4.87
2019-04-28T15:29:29.394Z,6.17
2019-04-28T15:32:05.481Z,5.83
2019-04-28T15:34:37.003Z,5.07
2019-04-28T15:37:09.913Z,6.20
2019-04-28T15:39:41.687Z,5.97
2019-04-28T15:42:13.255Z,6.07
2019-04-28T15:44:44.815Z,5.60
2019-04-28T15:47:16.443Z,6.27
2019-04-28T15:49:48.051Z,8.10
2019-04-28T15:52:19.579Z,5.10
2019-04-28T15:54:51.159Z,4.20
2019-04-28T15:57:22.822Z,4.03
2019-04-28T15:59:54.419Z,4.93
2019-04-28T16:02:25.909Z,5.90
2019-04-28T16:04:57.481Z,4.40
2019-04-28T16:07:29.113Z,5.57
2019-04-28T16:10:00.665Z,5.30
2019-04-28T16:12:32.317Z,4.80
2019-04-28T16:15:07.249Z,5.87
2019-04-28T16:17:37.845Z,5.33
2019-04-28T16:20:11.226Z,4.53
2019-04-28T16:22:43.430Z,5.20
2019-04-28T16:25:16.055Z,4.60
2019-04-28T16:27:49.430Z,7.43
2019-04-28T16:30:22.111Z,6.90
2019-04-28T16:32:54.965Z,4.67
2019-04-28T16:35:26.415Z,4.53
2019-04-28T16:37:57.983Z,5.77
2019-04-28T16:40:37.939Z,5.60
2019-04-28T16:43:14.812Z,6.20
2019-04-28T16:45:46.305Z,7.63
2019-04-28T16:48:17.937Z,8.07
2019-04-28T16:50:49.491Z,5.87
2019-04-28T16:53:21.090Z,6.77
2019-04-28T16:56:22.365Z,6.10
2019-04-28T16:59:11.785Z,6.90
2019-04-28T17:01:56.717Z,5.83
2019-04-28T17:04:28.329Z,6.30
2019-04-28T17:06:59.853Z,6.57
2019-04-28T17:09:31.560Z,6.00
2019-04-28T17:12:03.139Z,5.50
2019-04-28T17:14:34.683Z,5.80
2019-04-28T17:17:06.255Z,5.70
2019-04-28T17:19:37.737Z,5.50
2019-04-28T17:22:09.284Z,7.20
2019-04-28T17:24:40.827Z,5.87
2019-04-28T17:27:12.518Z,7.37
2019-04-28T17:29:44.068Z,6.80
2019-04-28T17:32:15.731Z,5.87
2019-04-28T17:34:47.199Z,4.93
2019-04-28T17:37:19.022Z,7.03
2019-04-28T17:39:50.493Z,5.57
2019-04-28T17:42:22.467Z,6.60
2019-04-28T17:44:54.057Z,7.93
2019-04-28T17:47:25.686Z,7.33
2019-04-28T17:49:58.325Z,8.30
2019-04-28T17:52:29.922Z,6.40
2019-04-28T17:55:01.433Z,5.27
2019-04-28T17:57:34.094Z,7.00
2019-04-28T18:00:14.257Z,6.07
2019-04-28T18:03:00.059Z,7.03
2019-04-28T18:05:36.269Z,7.07
2019-04-28T18:08:20.356Z,5.40
2019-04-28T18:10:40.937Z,5.17
2019-04-28T18:13:12.537Z,5.50
2019-04-28T18:16:15.147Z,6.30
2019-04-28T18:18:50.217Z,5.73
2019-04-28T18:21:21.827Z,7.53
2019-04-28T18:23:53.517Z,6.67
2019-04-28T18:26:25.085Z,5.80
2019-04-28T18:28:56.629Z,6.90
2019-04-28T18:31:35.769Z,9.37
2019-04-28T18:34:30.288Z,7.93
2019-04-28T18:37:19.378Z,8.10
2019-04-28T18:40:09.513Z,7.03
2019-04-28T18:43:02.794Z,8.43
2019-04-28T18:45:34.359Z,8.23
2019-04-28T18:48:05.919Z,7.03
2019-04-28T18:50:37.598Z,6.13
2019-04-28T18:53:09.212Z,8.17
2019-04-28T18:55:41.067Z,8.47
2019-04-28T18:58:12.797Z,7.80
2019-04-28T19:00:50.003Z,5.93
2019-04-28T19:03:33.567Z,8.83
2019-04-28T19:06:05.181Z,6.40
2019-04-28T19:08:48.990Z,9.17
2019-04-28T19:11:37.087Z,5.60
2019-04-28T19:14:31.585Z,6.07
2019-04-28T19:17:24.511Z,7.23
2019-04-28T19:19:57.101Z,7.10
2019-04-28T19:22:29.707Z,6.13
2019-04-28T19:25:01.348Z,9.00
2019-04-28T19:27:33.121Z,7.30
2019-04-28T19:30:04.988Z,6.77
2019-04-28T19:32:36.948Z,5.90
2019-04-28T19:35:08.863Z,4.87
2019-04-28T19:37:40.465Z,6.97
2019-04-28T19:40:12.173Z,7.20
2019-04-28T19:42:43.823Z,5.53
2019-04-28T19:45:17.425Z,8.33
2019-04-28T19:47:49.099Z,7.60
2019-04-28T19:50:26.087Z,6.30
2019-04-28T19:52:57.572Z,6.97
2019-04-28T19:55:33.240Z,5.40
2019-04-28T19:58:26.873Z,7.90
2019-04-28T20:01:01.235Z,9.13
2019-04-28T20:03:34.119Z,7.00
2019-04-28T20:06:05.635Z,6.10
2019-04-28T20:08:37.165Z,6.43
2019-04-28T20:11:08.645Z,6.33
2019-04-28T20:13:40.110Z,7.70
2019-04-28T20:16:11.764Z,7.23
2019-04-28T20:18:43.438Z,6.27
2019-04-28T20:21:15.298Z,5.93
2019-04-28T20:23:46.794Z,7.07
2019-04-28T20:26:18.346Z,7.13
2019-04-28T20:28:49.990Z,7.60
2019-04-28T20:31:21.607Z,5.70
2019-04-28T20:33:53.302Z,7.17
2019-04-28T20:36:32.925Z,7.73
2019-04-28T20:39:10.201Z,7.33
2019-04-28T20:41:43.290Z,8.67
2019-04-28T20:44:14.820Z,11.73
2019-04-28T20:46:46.337Z,9.07
2019-04-28T20:49:17.868Z,9.87
2019-04-28T20:51:49.404Z,8.63
2019-04-28T20:54:20.877Z,7.77
2019-04-28T20:56:52.649Z,10.00
2019-04-28T20:59:24.211Z,9.83
2019-04-28T21:01:55.734Z,9.17
2019-04-28T21:04:27.493Z,9.30
2019-04-28T21:06:59.016Z,9.53
2019-04-28T21:09:30.632Z,10.83
2019-04-28T21:12:02.174Z,11.43
2019-04-28T21:14:33.774Z,8.33
2019-04-28T21:17:05.326Z,8.67
2019-04-28T21:19:37.065Z,9.17
2019-04-28T21:22:08.576Z,10.00
2019-04-28T21:24:40.248Z,11.30
2019-04-28T21:27:11.876Z,9.07
2019-04-28T21:29:43.463Z,9.13
2019-04-28T21:32:15.205Z,10.80
2019-04-28T21:34:46.790Z,8.83
2019-04-28T21:37:18.624Z,10.13
2019-04-28T21:39:50.378Z,12.13
2019-04-28T21:42:24.340Z,11.13
2019-04-28T21:45:17.894Z,11.37
2019-04-28T21:47:49.498Z,10.23
2019-04-28T21:50:21.098Z,9.60
2019-04-28T21:52:52.848Z,10.00
2019-04-28T21:55:24.451Z,10.50
2019-04-28T21:57:55.934Z,8.27
2019-04-28T22:00:34.234Z,12.77
2019-04-28T22:03:23.478Z,9.60
2019-04-28T22:05:55.010Z,10.60
2019-04-28T22:08:26.520Z,10.23
2019-04-28T22:10:57.976Z,8.50
2019-04-28T22:13:29.470Z,8.97
2019-04-28T22:16:01.052Z,11.27
2019-04-28T22:18:32.591Z,9.43
2019-04-28T22:21:04.071Z,9.83
2019-04-28T22:23:46.558Z,10.53
2019-04-28T22:26:46.235Z,11.67
2019-04-28T22:29:17.716Z,9.30
2019-04-28T22:31:49.334Z,8.63
2019-04-28T22:34:20.830Z,11.60
2019-04-28T22:36:52.338Z,7.40
2019-04-28T22:39:23.798Z,9.60
2019-04-28T22:41:55.358Z,8.77
2019-04-28T22:44:26.882Z,9.73
2019-04-28T22:46:58.388Z,8.87
2019-04-28T22:49:29.900Z,10.77
2019-04-28T22:52:01.372Z,8.37
2019-04-28T22:55:00.686Z,9.50
2019-04-28T22:57:51.469Z,12.60
2019-04-28T23:00:41.598Z,8.90
2019-04-28T23:03:18.806Z,10.60
2019-04-28T23:05:50.359Z,9.40
2019-04-28T23:08:21.933Z,8.70
2019-04-28T23:10:53.660Z,10.87
2019-04-28T23:13:25.198Z,12.37
2019-04-28T23:15:56.738Z,10.10
2019-04-28T23:18:28.412Z,10.33
2019-04-28T23:21:03.130Z,10.47
2019-04-28T23:23:34.614Z,11.23
2019-04-28T23:26:06.207Z,10.77
2019-04-28T23:28:38.390Z,9.33
2019-04-28T23:31:09.890Z,10.50
2019-04-28T23:33:41.544Z,11.57
2019-04-28T23:36:13.135Z,12.73
2019-04-28T23:38:44.702Z,10.73
2019-04-28T23:41:30.192Z,7.77
2019-04-28T23:44:01.658Z,10.83
2019-04-28T23:46:50.989Z,8.90
2019-04-28T23:49:23.322Z,8.23
2019-04-28T23:52:16.418Z,9.67
2019-04-28T23:54:49.832Z,7.67
2019-04-28T23:57:21.315Z,8.13
2019-04-28T23:59:52.922Z,8.17
